createdAt,value
2022-10-23T00:00:31.876Z,2.10
2022-10-23T00:03:36.492Z,1.92
2022-10-23T00:06:41.960Z,1.70
2022-10-23T00:09:46.313Z,2.00
2022-10-23T00:12:50.908Z,1.98
2022-10-23T00:15:55.576Z,1.63
2022-10-23T00:18:59.633Z,1.77
2022-10-23T00:22:03.962Z,1.52
2022-10-23T00:25:11.502Z,2.55
2022-10-23T00:28:15.908Z,2.05
2022-10-23T00:31:22.682Z,2.00
2022-10-23T00:34:27.698Z,2.10
2022-10-23T00:37:32.576Z,2.17
2022-10-23T00:40:39.539Z,1.85
2022-10-23T00:44:30.465Z,1.98
2022-10-23T00:47:34.924Z,2.00
2022-10-23T00:50:40.045Z,1.80
2022-10-23T00:53:56.729Z,2.13
2022-10-23T00:57:15.960Z,1.80
2022-10-23T01:01:52.062Z,2.00
2022-10-23T01:05:00.573Z,1.60
2022-10-23T01:08:27.654Z,2.15
2022-10-23T01:11:57.744Z,1.67
2022-10-23T01:15:16.346Z,1.95
2022-10-23T01:18:34.239Z,2.55
2022-10-23T01:22:06.266Z,2.00
2022-10-23T01:25:23.165Z,2.08
2022-10-23T01:28:53.585Z,1.92
2022-10-23T01:32:06.769Z,1.80
2022-10-23T01:39:53.166Z,1.73
2022-10-23T01:55:53.280Z,1.70
2022-10-23T01:59:10.605Z,1.98
2022-10-23T02:02:18.763Z,1.65
2022-10-23T02:05:28.776Z,1.80
2022-10-23T02:08:34.182Z,2.15
2022-10-23T02:11:53.445Z,2.15
2022-10-23T02:15:14.063Z,2.03
2022-10-23T02:18:36.710Z,2.15
2022-10-23T02:22:06.838Z,1.95
2022-10-23T02:25:17.399Z,2.05
2022-10-23T02:28:32.033Z,2.03
2022-10-23T02:31:40.831Z,2.08
2022-10-23T02:34:45.592Z,2.15
2022-10-23T02:37:55.874Z,1.85
2022-10-23T02:41:34.004Z,2.10
2022-10-23T02:44:56.591Z,1.98
2022-10-23T02:48:29.714Z,1.90
2022-10-23T02:51:53.588Z,2.92
2022-10-23T02:55:46.891Z,1.83
2022-10-23T02:59:35.286Z,1.88
2022-10-23T03:02:49.134Z,1.92
2022-10-23T03:09:04.162Z,1.50
2022-10-23T03:12:09.633Z,1.67
2022-10-23T03:15:16.439Z,1.90
2022-10-23T03:18:21.121Z,2.10
2022-10-23T03:21:28.346Z,2.40
2022-10-23T03:24:33.269Z,1.73
2022-10-23T03:27:38.106Z,1.73
2022-10-23T03:30:45.412Z,2.10
2022-10-23T03:33:50.266Z,1.75
2022-10-23T03:36:54.557Z,1.90
2022-10-23T03:39:59.250Z,2.08
2022-10-23T03:43:03.669Z,2.00
2022-10-23T03:46:12.464Z,2.00
2022-10-23T03:49:17.456Z,2.00
2022-10-23T03:52:22.332Z,1.70
2022-10-23T03:55:29.211Z,2.30
2022-10-23T03:58:34.223Z,2.10
2022-10-23T04:01:38.770Z,1.80
2022-10-23T04:04:43.053Z,2.00
2022-10-23T04:07:47.661Z,1.75
2022-10-23T04:10:54.402Z,1.83
2022-10-23T04:14:06.128Z,2.40
2022-10-23T04:17:11.022Z,1.73
2022-10-23T04:20:15.416Z,1.90
2022-10-23T04:23:20.637Z,1.95
2022-10-23T04:26:25.600Z,1.77
2022-10-23T04:29:32.475Z,1.67
2022-10-23T04:32:37.139Z,2.00
2022-10-23T04:35:42.210Z,1.63
2022-10-23T04:38:48.712Z,1.83
2022-10-23T04:41:53.618Z,2.08
2022-10-23T04:59:35.853Z,1.50
2022-10-23T05:03:19.011Z,1.75
2022-10-23T05:22:05.426Z,1.58
2022-10-23T05:25:24.703Z,1.70
2022-10-23T05:28:37.598Z,1.60
2022-10-23T05:31:42.407Z,1.70
2022-10-23T05:34:50.643Z,1.70
2022-10-23T05:37:58.873Z,2.10
2022-10-23T05:41:04.077Z,2.35
2022-10-23T05:44:08.620Z,2.00
2022-10-23T05:47:46.460Z,1.70
2022-10-23T05:51:20.319Z,1.77
2022-10-23T05:54:48.028Z,2.00
2022-10-23T05:58:11.515Z,2.33
2022-10-23T06:01:51.660Z,1.98
2022-10-23T06:05:08.314Z,2.08
2022-10-23T06:08:36.003Z,2.05
2022-10-23T06:11:42.138Z,2.03
2022-10-23T06:14:53.302Z,2.20
2022-10-23T06:18:04.995Z,2.00
2022-10-23T06:21:13.511Z,2.15
2022-10-23T06:24:18.880Z,1.98
2022-10-23T06:27:31.574Z,1.88
2022-10-23T06:30:39.758Z,1.90
2022-10-23T06:33:44.682Z,1.70
2022-10-23T06:36:49.742Z,1.92
2022-10-23T06:40:17.446Z,1.80
2022-10-23T06:43:40.720Z,2.08
2022-10-23T06:47:02.090Z,2.00
2022-10-23T06:50:32.498Z,1.90
2022-10-23T06:53:44.952Z,2.60
2022-10-23T06:57:09.662Z,1.85
2022-10-23T07:00:22.096Z,1.95
2022-10-23T07:03:28.742Z,1.90
2022-10-23T07:06:33.846Z,1.83
2022-10-23T07:09:40.313Z,2.15
2022-10-23T07:13:03.819Z,2.80
2022-10-23T07:16:20.498Z,2.50
2022-10-23T07:19:25.887Z,2.72
2022-10-23T07:22:34.872Z,2.47
2022-10-23T07:25:46.573Z,2.50
2022-10-23T07:28:57.759Z,2.50
2022-10-23T07:32:04.683Z,1.90
2022-10-23T07:35:35.570Z,2.40
2022-10-23T07:38:46.961Z,2.13
2022-10-23T07:41:51.845Z,2.42
2022-10-23T07:44:57.321Z,2.22
2022-10-23T07:48:02.248Z,2.25
2022-10-23T07:51:19.475Z,2.15
2022-10-23T07:54:29.021Z,2.28
2022-10-23T07:57:40.097Z,2.30
2022-10-23T08:00:59.156Z,2.00
2022-10-23T08:04:11.086Z,2.35
2022-10-23T08:07:24.357Z,2.15
2022-10-23T08:10:31.976Z,1.83
2022-10-23T08:13:37.270Z,2.30
2022-10-23T08:16:44.361Z,2.10
2022-10-23T08:20:15.278Z,2.17
2022-10-23T08:23:22.193Z,1.85
2022-10-23T08:26:30.998Z,1.98
2022-10-23T08:29:36.015Z,2.92
2022-10-23T08:32:40.828Z,2.35
2022-10-23T08:35:46.473Z,1.92
2022-10-23T08:38:58.746Z,1.90
2022-10-23T08:42:05.142Z,2.40
2022-10-23T08:46:03.340Z,2.00
2022-10-23T08:49:42.779Z,2.20
2022-10-23T08:52:55.395Z,2.33
2022-10-23T08:56:28.116Z,2.60
2022-10-23T08:59:48.408Z,2.20
2022-10-23T09:02:54.203Z,1.98
2022-10-23T09:06:41.144Z,2.00
2022-10-23T09:09:57.376Z,1.90
2022-10-23T09:13:32.588Z,2.00
2022-10-23T09:20:37.433Z,3.08
2022-10-23T09:23:42.324Z,2.47
2022-10-23T09:26:49.825Z,3.00
2022-10-23T09:29:55.897Z,3.00
2022-10-23T09:33:14.569Z,2.50
2022-10-23T09:36:21.367Z,2.65
2022-10-23T09:39:36.463Z,2.45
2022-10-23T09:42:56.303Z,2.25
2022-10-23T09:46:05.151Z,2.10
2022-10-23T09:49:27.989Z,1.80
2022-10-23T09:52:35.769Z,2.00
2022-10-23T09:55:40.258Z,2.13
2022-10-23T10:31:33.547Z,1.67
2022-10-23T10:37:19.353Z,1.95
2022-10-23T10:40:31.861Z,1.77
2022-10-23T10:44:07.479Z,1.90
2022-10-23T10:47:23.686Z,1.88
2022-10-23T10:50:49.262Z,2.30
2022-10-23T10:54:19.602Z,2.03
2022-10-23T10:57:44.136Z,2.05
2022-10-23T11:00:56.861Z,2.30
2022-10-23T11:04:39.086Z,2.45
2022-10-23T11:07:54.165Z,2.35
2022-10-23T11:11:23.029Z,2.40
2022-10-23T11:14:33.116Z,2.00
2022-10-23T11:17:44.399Z,1.77
2022-10-23T11:20:59.978Z,1.80
2022-10-23T11:24:49.616Z,1.95
2022-10-23T11:28:10.356Z,1.70
2022-10-23T11:31:42.890Z,1.48
2022-10-23T11:35:09.448Z,1.55
2022-10-23T11:38:24.637Z,2.13
2022-10-23T11:44:50.278Z,1.70
2022-10-23T11:48:36.721Z,1.85
2022-10-23T11:51:41.752Z,1.55
2022-10-23T11:54:46.043Z,2.03
2022-10-23T11:58:34.021Z,2.10
2022-10-23T12:01:45.541Z,1.98
2022-10-23T12:04:52.623Z,1.80
2022-10-23T12:08:00.432Z,2.30
2022-10-23T12:11:05.379Z,2.60
2022-10-23T12:14:47.901Z,2.05
2022-10-23T12:18:13.258Z,2.20
2022-10-23T12:21:28.080Z,1.70
2022-10-23T12:24:57.576Z,1.95
2022-10-23T12:28:20.267Z,1.73
2022-10-23T12:32:17.662Z,2.17
2022-10-23T12:35:49.846Z,2.30
2022-10-23T12:38:58.477Z,1.92
2022-10-23T12:42:05.570Z,1.70
2022-10-23T12:45:22.498Z,1.73
2022-10-23T12:48:27.014Z,1.70
2022-10-23T12:51:35.660Z,1.77
2022-10-23T12:54:40.712Z,1.98
2022-10-23T12:57:46.144Z,1.80
2022-10-23T13:00:57.493Z,1.40
2022-10-23T13:04:10.661Z,1.50
2022-10-23T13:07:18.751Z,1.70
2022-10-23T13:10:26.363Z,1.77
2022-10-23T13:13:40.885Z,1.70
2022-10-23T13:16:45.461Z,1.92
2022-10-23T13:19:54.464Z,1.40
2022-10-23T13:23:01.843Z,1.80
2022-10-23T13:26:33.014Z,1.70
2022-10-23T13:29:37.342Z,1.83
2022-10-23T13:32:42.389Z,1.90
2022-10-23T13:36:04.066Z,1.50
2022-10-23T13:39:11.879Z,1.85
2022-10-23T13:42:16.629Z,1.50
2022-10-23T13:45:25.173Z,1.67
2022-10-23T13:48:30.324Z,1.52
2022-10-23T13:51:52.410Z,1.52
2022-10-23T13:54:57.059Z,1.55
2022-10-23T13:58:02.457Z,1.23
2022-10-23T14:01:22.179Z,1.10
2022-10-23T14:04:26.561Z,1.95
2022-10-23T14:07:30.846Z,1.60
2022-10-23T14:10:35.265Z,1.55
2022-10-23T14:13:40.602Z,1.40
2022-10-23T14:16:45.000Z,1.50
2022-10-23T14:19:50.209Z,2.00
2022-10-23T14:22:54.774Z,1.42
2022-10-23T14:26:09.766Z,1.40
2022-10-23T14:29:22.831Z,1.33
2022-10-23T14:32:30.057Z,1.38
2022-10-23T14:35:34.908Z,0.90
2022-10-23T14:38:39.849Z,1.00
2022-10-23T14:41:44.402Z,0.90
2022-10-23T14:44:50.376Z,1.10
2022-10-23T14:47:54.702Z,1.83
2022-10-23T14:50:59.357Z,1.45
2022-10-23T15:05:26.396Z,1.33
2022-10-23T15:08:30.818Z,1.40
2022-10-23T15:11:35.499Z,1.27
2022-10-23T15:14:40.014Z,1.52
2022-10-23T15:17:44.443Z,1.70
2022-10-23T15:20:52.800Z,1.23
2022-10-23T15:23:57.030Z,1.10
2022-10-23T15:27:02.197Z,1.15
2022-10-23T15:30:07.471Z,1.10
2022-10-23T15:33:14.536Z,1.15
2022-10-23T15:36:22.458Z,0.90
2022-10-23T15:39:33.811Z,1.00
2022-10-23T15:42:38.059Z,1.05
2022-10-23T15:45:43.278Z,1.00
2022-10-23T15:48:47.704Z,1.10
2022-10-23T15:51:52.635Z,0.95
2022-10-23T15:54:57.517Z,1.17
2022-10-23T15:58:04.250Z,0.88
2022-10-23T16:01:09.049Z,1.65
2022-10-23T16:04:14.409Z,1.15
2022-10-23T16:11:03.232Z,1.48
2022-10-23T16:14:12.474Z,1.05
2022-10-23T16:17:18.480Z,0.90
2022-10-23T16:20:23.085Z,1.38
2022-10-23T16:23:28.361Z,1.02
2022-10-23T16:26:33.345Z,1.55
2022-10-23T16:29:37.853Z,1.20
2022-10-23T16:32:42.514Z,1.83
2022-10-23T16:35:47.817Z,1.20
2022-10-23T16:38:57.384Z,1.67
2022-10-23T16:42:32.205Z,1.45
2022-10-23T16:45:48.346Z,1.30
2022-10-23T16:48:54.067Z,1.30
2022-10-23T16:51:58.463Z,1.20
2022-10-23T16:55:02.965Z,1.50
2022-10-23T16:58:07.669Z,1.35
2022-10-23T17:01:16.842Z,1.58
2022-10-23T17:04:21.339Z,1.30
2022-10-23T17:07:25.744Z,2.05
2022-10-23T17:10:30.213Z,2.55
2022-10-23T17:13:37.252Z,2.10
2022-10-23T17:16:47.684Z,1.90
2022-10-23T17:19:53.848Z,1.83
2022-10-23T17:22:58.519Z,1.58
2022-10-23T17:26:06.597Z,1.65
2022-10-23T17:29:13.646Z,1.75
2022-10-23T17:32:18.430Z,1.92
2022-10-23T17:35:22.899Z,1.92
2022-10-23T17:38:27.249Z,1.70
2022-10-23T17:41:33.489Z,1.60
2022-10-23T17:44:37.883Z,1.13
2022-10-23T17:47:43.469Z,1.42
2022-10-23T17:50:48.096Z,1.67
2022-10-23T17:53:55.461Z,1.83
2022-10-23T17:57:00.240Z,1.58
2022-10-23T18:00:06.928Z,1.85
2022-10-23T18:03:19.749Z,2.10
2022-10-23T18:06:32.385Z,1.67
2022-10-23T18:09:37.472Z,2.30
2022-10-23T18:12:42.594Z,1.92
2022-10-23T18:15:47.036Z,1.90
2022-10-23T18:18:52.958Z,2.05
2022-10-23T18:21:57.829Z,2.03
2022-10-23T18:25:05.935Z,2.40
2022-10-23T18:28:14.278Z,2.40
2022-10-23T18:31:21.188Z,2.70
2022-10-23T18:34:27.178Z,2.40
2022-10-23T18:37:35.543Z,2.17
2022-10-23T18:40:43.660Z,2.20
2022-10-23T18:43:48.582Z,2.38
2022-10-23T18:46:55.084Z,1.85
2022-10-23T18:49:59.965Z,2.58
2022-10-23T18:53:05.282Z,2.10
2022-10-23T18:56:09.964Z,2.17
2022-10-23T18:59:19.175Z,2.13
2022-10-23T19:02:24.099Z,2.03
2022-10-23T19:05:31.154Z,1.80
2022-10-23T19:08:39.841Z,2.10
2022-10-23T19:11:45.497Z,1.83
2022-10-23T19:14:50.519Z,2.40
2022-10-23T19:17:55.575Z,1.60
2022-10-23T19:21:01.559Z,2.45
2022-10-23T19:24:17.565Z,1.90
2022-10-23T19:27:22.294Z,2.08
2022-10-23T19:30:28.196Z,2.17
2022-10-23T19:33:38.285Z,1.83
2022-10-23T19:36:42.945Z,1.50
2022-10-23T19:39:48.888Z,1.60
2022-10-23T19:42:54.359Z,1.75
2022-10-23T19:46:09.268Z,1.30
2022-10-23T19:49:18.223Z,1.48
2022-10-23T19:52:22.821Z,1.50
2022-10-23T19:55:27.312Z,1.40
2022-10-23T19:58:32.668Z,1.42
2022-10-23T20:01:37.499Z,2.00
2022-10-23T20:04:42.645Z,1.75
2022-10-23T20:07:49.072Z,1.48
2022-10-23T20:14:02.239Z,1.30
2022-10-23T20:17:06.824Z,1.33
2022-10-23T20:20:11.576Z,1.20
2022-10-23T20:23:16.341Z,1.50
2022-10-23T20:26:21.968Z,1.13
2022-10-23T20:29:26.860Z,1.60
2022-10-23T20:32:33.870Z,1.40
2022-10-23T20:35:41.710Z,1.60
2022-10-23T20:38:47.195Z,1.13
2022-10-23T20:41:55.246Z,1.00
2022-10-23T20:45:02.176Z,1.38
2022-10-23T20:48:07.428Z,1.30
2022-10-23T20:51:15.940Z,1.48
2022-10-23T20:54:21.556Z,1.10
2022-10-23T20:57:27.587Z,1.05
2022-10-23T21:00:32.545Z,0.98
2022-10-23T21:03:38.245Z,0.85
2022-10-23T21:06:57.741Z,0.95
2022-10-23T21:10:08.734Z,1.10
2022-10-23T21:13:13.978Z,0.80
2022-10-23T21:16:24.935Z,0.80
2022-10-23T21:22:36.998Z,0.68
2022-10-23T21:25:43.005Z,0.70
2022-10-23T21:28:56.346Z,0.57
2022-10-23T21:32:11.482Z,0.53
2022-10-23T21:35:16.345Z,0.68
2022-10-23T21:38:21.145Z,0.70
2022-10-23T21:41:33.322Z,0.50
2022-10-23T21:44:38.193Z,0.50
2022-10-23T21:47:43.352Z,0.60
2022-10-23T21:53:54.050Z,0.50
2022-10-23T21:57:03.181Z,0.50
2022-10-23T22:00:08.757Z,0.88
2022-10-23T22:03:19.818Z,0.65
2022-10-23T22:06:28.781Z,0.60
2022-10-23T22:09:34.179Z,0.65
2022-10-23T22:12:39.120Z,0.40
2022-10-23T22:18:49.505Z,0.77
2022-10-23T22:21:55.399Z,0.60
2022-10-23T22:25:01.405Z,0.60
2022-10-23T22:28:05.942Z,0.65
2022-10-23T22:31:19.716Z,0.80
2022-10-23T22:37:54.979Z,0.60
2022-10-23T22:41:04.230Z,0.65
2022-10-23T22:44:11.863Z,0.90
2022-10-23T22:47:16.582Z,0.70
2022-10-23T22:50:21.296Z,0.63
2022-10-23T22:53:25.956Z,0.70
2022-10-23T22:56:31.245Z,1.08
2022-10-23T22:59:36.138Z,0.85
2022-10-23T23:02:42.141Z,0.90
2022-10-23T23:05:48.206Z,0.63
2022-10-23T23:08:53.360Z,0.77
2022-10-23T23:11:58.225Z,0.85
2022-10-23T23:15:03.376Z,1.27
2022-10-23T23:18:08.084Z,0.70
2022-10-23T23:21:12.475Z,0.80
2022-10-23T23:24:17.162Z,0.80
2022-10-23T23:27:21.610Z,0.90
2022-10-23T23:30:26.646Z,0.75
2022-10-23T23:33:31.971Z,1.30
2022-10-23T23:36:36.872Z,1.10
2022-10-23T23:39:41.592Z,1.30
2022-10-23T23:42:46.942Z,1.00
2022-10-23T23:45:51.905Z,1.20
2022-10-23T23:48:56.430Z,1.50
2022-10-23T23:52:02.361Z,1.05
2022-10-23T23:55:08.168Z,1.67
2022-10-23T23:58:13.307Z,1.58
